createdAt,value
2019-04-11T00:02:09.965Z,22.10
2019-04-11T00:04:56.687Z,22.10
2019-04-11T00:07:44.467Z,22.10
2019-04-11T00:10:31.308Z,22.10
2019-04-11T00:13:25.215Z,22.10
2019-04-11T00:16:08.817Z,22.10
2019-04-11T00:18:55.283Z,22.10
2019-04-11T00:21:41.633Z,22.10
2019-04-11T00:24:29.214Z,22.10
2019-04-11T00:27:15.492Z,22.10
2019-04-11T00:30:01.976Z,22.10
2019-04-11T00:32:48.327Z,22.10
2019-04-11T00:35:34.186Z,22.00
2019-04-11T00:38:21.450Z,22.00
2019-04-11T00:41:08.068Z,22.00
2019-04-11T00:43:54.625Z,22.10
2019-04-11T00:46:42.544Z,22.00
2019-04-11T00:49:28.858Z,22.10
2019-04-11T00:52:16.298Z,22.10
2019-04-11T00:55:03.049Z,22.00
2019-04-11T00:57:49.549Z,22.00
2019-04-11T01:00:37.072Z,22.00
2019-04-11T01:03:24.253Z,22.00
2019-04-11T01:06:10.708Z,22.00
2019-04-11T01:08:57.829Z,22.00
2019-04-11T01:11:44.179Z,22.00
2019-04-11T01:14:30.685Z,22.00
2019-04-11T01:17:17.189Z,22.00
2019-04-11T01:20:06.937Z,22.00
2019-04-11T01:22:54.069Z,22.00
2019-04-11T01:25:41.042Z,22.00
2019-04-11T01:28:27.515Z,22.00
2019-04-11T01:31:15.606Z,22.00
2019-04-11T01:34:02.405Z,22.00
2019-04-11T01:36:48.663Z,22.00
2019-04-11T01:40:01.387Z,22.00
2019-04-11T01:42:51.265Z,22.00
2019-04-11T01:45:37.923Z,22.00
2019-04-11T01:48:33.365Z,22.00
2019-04-11T01:51:19.535Z,22.00
2019-04-11T01:54:06.071Z,21.90
2019-04-11T01:56:53.495Z,21.90
2019-04-11T01:59:39.823Z,21.90
2019-04-11T02:02:42.274Z,21.90
2019-04-11T02:05:29.667Z,21.90
2019-04-11T02:08:17.599Z,21.90
2019-04-11T02:11:03.796Z,21.90
2019-04-11T02:13:50.355Z,21.90
2019-04-11T02:16:36.923Z,21.90
2019-04-11T02:19:23.860Z,21.90
2019-04-11T02:22:32.737Z,21.90
2019-04-11T02:25:48.967Z,21.90
2019-04-11T02:28:35.161Z,21.90
2019-04-11T02:31:22.889Z,21.90
2019-04-11T02:34:11.222Z,21.90
2019-04-11T02:36:58.584Z,21.90
2019-04-11T02:39:44.884Z,21.90
2019-04-11T02:42:32.880Z,21.90
2019-04-11T02:45:30.717Z,21.90
2019-04-11T02:48:09.295Z,21.90
2019-04-11T02:50:56.487Z,21.90
2019-04-11T02:53:43.321Z,21.90
2019-04-11T02:56:31.265Z,21.90
2019-04-11T02:59:19.536Z,21.90
2019-04-11T03:02:08.883Z,21.90
2019-04-11T03:04:55.784Z,21.90
2019-04-11T03:07:42.581Z,21.80
2019-04-11T03:10:29.029Z,21.90
2019-04-11T03:13:16.602Z,21.80
2019-04-11T03:16:18.213Z,21.80
2019-04-11T03:19:08.671Z,21.80
2019-04-11T03:21:43.882Z,21.80
2019-04-11T03:24:29.496Z,21.80
2019-04-11T03:27:17.829Z,21.80
2019-04-11T03:30:07.038Z,21.80
2019-04-11T03:38:51.448Z,21.80
2019-04-11T03:41:32.917Z,21.80
2019-04-11T03:44:15.926Z,21.80
2019-04-11T03:47:13.293Z,21.80
2019-04-11T03:49:50.447Z,21.80
2019-04-11T03:52:30.574Z,21.80
2019-04-11T03:55:19.169Z,21.80
2019-04-11T03:58:06.142Z,21.80
2019-04-11T04:00:57.429Z,21.80
2019-04-11T04:03:42.638Z,21.80
2019-04-11T04:06:30.895Z,21.80
2019-04-11T04:09:19.181Z,21.70
2019-04-11T04:12:07.109Z,21.70
2019-04-11T04:15:37.812Z,21.70
2019-04-11T04:18:19.212Z,21.80
2019-04-11T04:21:18.911Z,21.70
2019-04-11T04:24:25.147Z,21.70
2019-04-11T04:27:11.121Z,21.70
2019-04-11T04:29:59.861Z,21.70
2019-04-11T04:32:47.272Z,21.70
2019-04-11T04:35:36.069Z,21.70
2019-04-11T04:38:23.566Z,21.70
2019-04-11T04:41:22.638Z,21.70
2019-04-11T04:44:01.803Z,21.70
2019-04-11T04:47:00.175Z,21.70
2019-04-11T04:49:39.249Z,21.70
2019-04-11T04:52:27.881Z,21.70
2019-04-11T04:55:17.079Z,21.70
2019-04-11T04:58:02.949Z,21.70
2019-04-11T05:00:53.241Z,21.70
2019-04-11T05:03:37.891Z,21.70
2019-04-11T05:06:24.333Z,21.60
2019-04-11T05:09:12.849Z,21.60
2019-04-11T05:11:59.473Z,21.60
2019-04-11T05:14:45.601Z,21.60
2019-04-11T05:17:32.462Z,21.60
2019-04-11T05:20:19.738Z,21.60
2019-04-11T05:23:06.438Z,21.60
2019-04-11T05:25:53.028Z,21.70
2019-04-11T05:28:39.563Z,21.70
2019-04-11T05:31:26.932Z,21.60
2019-04-11T05:34:13.974Z,21.60
2019-04-11T05:37:00.277Z,21.60
2019-04-11T05:39:48.237Z,21.70
2019-04-11T05:42:35.449Z,21.60
2019-04-11T05:45:24.396Z,21.70
2019-04-11T05:48:15.681Z,21.70
2019-04-11T05:51:02.376Z,21.70
2019-04-11T05:53:51.281Z,21.70
2019-04-11T05:56:37.555Z,21.70
2019-04-11T05:59:25.262Z,21.70
2019-04-11T06:02:30.141Z,21.70
2019-04-11T06:05:52.048Z,21.80
2019-04-11T06:08:39.893Z,21.80
2019-04-11T06:11:41.187Z,21.90
2019-04-11T06:14:44.608Z,22.00
2019-04-11T06:17:30.899Z,22.20
2019-04-11T06:20:43.218Z,22.50
2019-04-11T06:24:04.223Z,22.70
2019-04-11T06:27:22.178Z,23.00
2019-04-11T06:30:28.346Z,23.40
2019-04-11T06:33:20.632Z,23.60
2019-04-11T06:36:26.751Z,23.80
2019-04-11T06:39:24.208Z,24.00
2019-04-11T06:42:39.291Z,24.20
2019-04-11T06:45:43.997Z,24.40
2019-04-11T06:48:51.972Z,24.60
2019-04-11T06:51:48.409Z,24.70
2019-04-11T06:54:47.509Z,24.90
2019-04-11T06:57:34.220Z,25.00
2019-04-11T07:00:21.037Z,25.10
2019-04-11T07:03:18.767Z,25.30
2019-04-11T07:05:57.278Z,25.40
2019-04-11T07:08:54.691Z,25.50
2019-04-11T07:11:45.009Z,25.60
2019-04-11T07:14:37.541Z,25.70
2019-04-11T07:17:43.739Z,25.70
2019-04-11T07:21:03.182Z,25.80
2019-04-11T07:24:07.766Z,25.80
2019-04-11T07:27:00.938Z,25.70
2019-04-11T07:30:19.321Z,25.60
2019-04-11T07:33:26.713Z,25.60
2019-04-11T07:36:31.653Z,25.70
2019-04-11T07:39:44.558Z,25.70
2019-04-11T07:42:59.414Z,25.80
2019-04-11T07:46:06.761Z,25.90
2019-04-11T07:48:55.168Z,25.90
2019-04-11T07:51:52.931Z,26.00
2019-04-11T07:54:39.029Z,26.00
2019-04-11T07:57:31.352Z,26.10
2019-04-11T08:00:44.168Z,26.10
2019-04-11T08:03:47.679Z,26.20
2019-04-11T08:06:52.139Z,26.30
2019-04-11T08:09:46.412Z,26.40
2019-04-11T08:12:33.869Z,26.50
2019-04-11T08:15:39.937Z,26.60
2019-04-11T08:18:48.859Z,26.70
2019-04-11T08:21:52.610Z,26.80
2019-04-11T08:24:46.897Z,26.90
2019-04-11T08:27:50.934Z,27.00
2019-04-11T08:30:33.096Z,27.10
2019-04-11T08:33:19.655Z,27.10
2019-04-11T08:36:24.620Z,27.00
2019-04-11T08:39:18.663Z,26.90
2019-04-11T08:42:31.786Z,26.70
2019-04-11T08:45:17.806Z,26.50
2019-04-11T08:48:05.491Z,26.20
2019-04-11T08:50:55.598Z,26.10
2019-04-11T08:54:10.063Z,25.90
2019-04-11T08:56:56.303Z,25.80
2019-04-11T08:59:59.972Z,25.70
2019-04-11T09:03:07.887Z,25.60
2019-04-11T09:06:08.625Z,25.50
2019-04-11T09:09:20.912Z,25.50
2019-04-11T09:12:10.001Z,25.40
2019-04-11T09:15:28.690Z,25.40
2019-04-11T09:18:15.333Z,25.40
2019-04-11T09:21:40.305Z,25.30
2019-04-11T09:24:37.055Z,25.30
2019-04-11T09:27:41.951Z,25.20
2019-04-11T09:30:54.880Z,25.10
2019-04-11T09:34:01.591Z,25.10
2019-04-11T09:37:06.369Z,25.00
2019-04-11T09:40:26.006Z,25.00
2019-04-11T09:43:17.910Z,25.00
2019-04-11T09:46:27.208Z,25.00
2019-04-11T09:49:29.010Z,25.00
2019-04-11T09:52:23.393Z,24.90
2019-04-11T09:55:19.210Z,24.90
2019-04-11T09:58:23.077Z,24.90
2019-04-11T10:01:28.883Z,24.90
2019-04-11T10:04:16.772Z,24.90
2019-04-11T10:07:21.718Z,24.90
2019-04-11T10:10:44.621Z,25.00
2019-04-11T10:13:55.286Z,25.00
2019-04-11T10:17:01.351Z,25.00
2019-04-11T10:19:51.871Z,24.90
2019-04-11T10:23:10.363Z,24.90
2019-04-11T10:26:01.371Z,24.90
2019-04-11T10:29:02.264Z,24.90
2019-04-11T10:31:50.590Z,24.80
2019-04-11T10:34:46.346Z,24.80
2019-04-11T10:37:33.881Z,24.80
2019-04-11T10:40:52.448Z,24.70
2019-04-11T10:43:38.885Z,24.70
2019-04-11T10:46:47.424Z,24.70
2019-04-11T10:50:00.806Z,24.70
2019-04-11T10:52:53.360Z,24.70
2019-04-11T10:56:08.579Z,24.70
2019-04-11T10:58:57.381Z,24.70
2019-04-11T11:02:12.749Z,24.70
2019-04-11T11:04:59.168Z,24.70
2019-04-11T11:07:46.167Z,24.70
2019-04-11T11:10:35.426Z,24.70
2019-04-11T11:13:39.525Z,24.60
2019-04-11T11:16:32.637Z,24.60
2019-04-11T11:19:50.078Z,24.60
2019-04-11T11:22:46.558Z,24.60
2019-04-11T11:25:48.315Z,24.60
2019-04-11T11:28:32.265Z,24.60
2019-04-11T11:31:47.995Z,24.60
2019-04-11T11:34:42.156Z,24.60
2019-04-11T11:37:45.396Z,24.60
2019-04-11T11:40:50.063Z,24.60
2019-04-11T11:43:37.026Z,24.60
2019-04-11T11:46:40.889Z,24.60
2019-04-11T11:49:42.351Z,24.60
2019-04-11T11:52:51.139Z,24.60
2019-04-11T11:55:38.668Z,24.60
2019-04-11T11:58:44.194Z,24.50
2019-04-11T12:01:31.541Z,24.50
2019-04-11T12:04:40.493Z,24.40
2019-04-11T12:07:37.384Z,24.40
2019-04-11T12:10:29.267Z,24.40
2019-04-11T12:13:45.476Z,24.40
2019-04-11T12:16:55.008Z,24.40
2019-04-11T12:19:52.669Z,24.30
2019-04-11T12:22:38.345Z,24.30
2019-04-11T12:25:31.427Z,24.30
2019-04-11T12:28:43.653Z,24.30
2019-04-11T12:31:32.068Z,24.30
2019-04-11T12:34:41.550Z,24.30
2019-04-11T12:37:33.653Z,24.40
2019-04-11T12:40:42.363Z,24.30
2019-04-11T12:43:44.543Z,24.30
2019-04-11T12:46:50.143Z,24.30
2019-04-11T12:49:54.189Z,24.30
2019-04-11T12:53:06.536Z,24.20
2019-04-11T12:56:10.991Z,24.20
2019-04-11T12:59:00.242Z,24.20
2019-04-11T13:02:04.624Z,24.10
2019-04-11T13:04:51.079Z,24.20
2019-04-11T13:07:55.175Z,24.20
2019-04-11T13:10:42.182Z,24.20
2019-04-11T13:13:33.783Z,24.20
2019-04-11T13:16:19.880Z,24.20
2019-04-11T13:19:20.619Z,24.10
2019-04-11T13:22:10.941Z,24.10
2019-04-11T13:25:18.640Z,24.10
2019-04-11T13:28:04.840Z,24.10
2019-04-11T13:31:26.020Z,24.10
2019-04-11T13:34:12.429Z,24.10
2019-04-11T13:37:27.092Z,24.00
2019-04-11T13:40:30.396Z,24.00
2019-04-11T13:43:30.488Z,24.00
2019-04-11T13:46:43.036Z,23.90
2019-04-11T13:50:07.745Z,23.90
2019-04-11T13:53:14.701Z,23.90
2019-04-11T13:56:00.611Z,23.80
2019-04-11T13:59:12.664Z,23.80
2019-04-11T14:02:06.936Z,23.80
2019-04-11T14:04:54.462Z,23.80
2019-04-11T14:07:41.467Z,23.80
2019-04-11T14:10:31.444Z,23.80
2019-04-11T14:13:15.835Z,23.80
2019-04-11T14:16:04.823Z,23.70
2019-04-11T14:19:12.424Z,23.70
2019-04-11T14:21:58.945Z,23.70
2019-04-11T14:24:56.829Z,23.70
2019-04-11T14:27:42.971Z,23.70
2019-04-11T14:30:55.099Z,23.60
2019-04-11T14:33:43.830Z,23.60
2019-04-11T14:36:55.091Z,23.60
2019-04-11T14:39:43.752Z,23.50
2019-04-11T14:42:46.014Z,23.50
2019-04-11T14:45:48.780Z,23.50
2019-04-11T14:48:43.155Z,23.50
2019-04-11T14:51:48.730Z,23.50
2019-04-11T14:54:40.588Z,23.50
2019-04-11T14:57:46.894Z,23.40
2019-04-11T15:00:41.157Z,23.40
2019-04-11T15:03:57.451Z,23.40
2019-04-11T15:06:47.029Z,23.40
2019-04-11T15:10:05.016Z,23.40
2019-04-11T15:12:51.392Z,23.40
2019-04-11T15:15:53.256Z,23.40
2019-04-11T15:18:44.834Z,23.40
2019-04-11T15:21:50.640Z,23.40
2019-04-11T15:24:38.111Z,23.40
2019-04-11T15:27:42.344Z,23.40
2019-04-11T15:30:29.272Z,23.40
2019-04-11T15:33:33.547Z,23.40
2019-04-11T15:36:20.809Z,23.40
2019-04-11T15:39:25.149Z,23.40
2019-04-11T15:42:16.126Z,23.30
2019-04-11T15:45:17.409Z,23.30
2019-04-11T15:48:26.033Z,23.20
2019-04-11T15:51:38.124Z,23.20
2019-04-11T15:54:43.643Z,23.20
2019-04-11T15:57:49.322Z,23.10
2019-04-11T16:01:03.616Z,23.10
2019-04-11T16:03:52.950Z,23.10
2019-04-11T16:06:57.123Z,23.10
2019-04-11T16:09:43.770Z,23.00
2019-04-11T16:12:38.919Z,23.00
2019-04-11T16:15:26.040Z,23.00
2019-04-11T16:18:31.924Z,22.90
2019-04-11T16:21:24.302Z,22.90
2019-04-11T16:24:15.936Z,22.80
2019-04-11T16:27:17.015Z,22.80
2019-04-11T16:30:07.918Z,22.80
2019-04-11T16:33:03.579Z,22.80
2019-04-11T16:35:57.282Z,22.80
2019-04-11T16:39:01.125Z,22.80
2019-04-11T16:42:14.959Z,22.80
2019-04-11T16:45:14.356Z,22.80
2019-04-11T16:48:03.575Z,22.70
2019-04-11T16:50:49.984Z,22.70
2019-04-11T16:53:36.346Z,22.70
2019-04-11T16:56:22.649Z,22.70
2019-04-11T16:59:08.944Z,22.70
2019-04-11T17:01:55.369Z,22.70
2019-04-11T17:04:41.824Z,22.60
2019-04-11T17:07:36.711Z,22.60
2019-04-11T17:10:42.586Z,22.60
2019-04-11T17:13:28.871Z,22.60
2019-04-11T17:16:17.130Z,22.60
2019-04-11T17:19:05.445Z,22.60
2019-04-11T17:21:51.600Z,22.60
2019-04-11T17:24:37.929Z,22.50
2019-04-11T17:27:24.349Z,22.50
2019-04-11T17:30:12.112Z,22.50
2019-04-11T17:32:58.230Z,22.50
2019-04-11T17:35:44.537Z,22.50
2019-04-11T17:38:31.966Z,22.50
2019-04-11T17:41:18.251Z,22.50
2019-04-11T17:44:04.639Z,22.50
2019-04-11T17:46:51.076Z,22.50
2019-04-11T17:49:36.937Z,22.50
2019-04-11T17:52:22.800Z,22.50
2019-04-11T17:55:09.693Z,22.40
2019-04-11T17:57:57.655Z,22.50
2019-04-11T18:00:48.104Z,22.60
2019-04-11T18:03:34.447Z,22.70
2019-04-11T18:06:21.572Z,22.70
2019-04-11T18:09:10.728Z,22.60
2019-04-11T18:11:56.881Z,22.50
2019-04-11T18:14:43.389Z,22.40
2019-04-11T18:17:29.721Z,22.30
2019-04-11T18:20:16.499Z,22.30
2019-04-11T18:23:03.041Z,22.30
2019-04-11T18:25:51.118Z,22.20
2019-04-11T18:28:37.296Z,22.20
2019-04-11T18:31:25.028Z,22.20
2019-04-11T18:34:12.483Z,22.30
2019-04-11T18:37:01.879Z,22.30
2019-04-11T18:39:46.772Z,22.30
2019-04-11T18:42:33.153Z,22.30
2019-04-11T18:45:19.484Z,22.30
2019-04-11T18:48:05.812Z,22.30
2019-04-11T18:50:53.871Z,22.30
2019-04-11T18:53:40.031Z,22.30
2019-04-11T18:56:26.599Z,22.30
2019-04-11T18:59:13.080Z,22.40
2019-04-11T19:01:59.471Z,22.30
2019-04-11T19:04:45.384Z,22.40
2019-04-11T19:07:31.748Z,22.40
2019-04-11T19:10:18.023Z,22.40
2019-04-11T19:13:04.025Z,22.40
2019-04-11T19:15:50.347Z,22.40
2019-04-11T19:18:36.821Z,22.40
2019-04-11T19:21:23.271Z,22.40
2019-04-11T19:24:12.866Z,22.40
2019-04-11T19:26:57.567Z,22.40
2019-04-11T19:29:44.108Z,22.40
2019-04-11T19:32:29.860Z,22.40
2019-04-11T19:35:16.207Z,22.40
2019-04-11T19:38:02.745Z,22.50
2019-04-11T19:40:49.084Z,22.50
2019-04-11T19:43:35.276Z,22.50
2019-04-11T19:46:21.751Z,22.50
2019-04-11T19:49:08.934Z,22.50
2019-04-11T19:51:55.300Z,22.50
2019-04-11T19:54:41.752Z,22.50
2019-04-11T19:57:28.147Z,22.50
2019-04-11T20:00:14.580Z,22.40
2019-04-11T20:03:01.031Z,22.40
2019-04-11T20:05:47.356Z,22.40
2019-04-11T20:08:33.716Z,22.40
2019-04-11T20:11:20.155Z,22.40
2019-04-11T20:14:07.901Z,22.40
2019-04-11T20:16:53.988Z,22.40
2019-04-11T20:19:40.675Z,22.40
2019-04-11T20:22:26.901Z,22.40
2019-04-11T20:25:16.046Z,22.40
2019-04-11T20:28:01.487Z,22.30
2019-04-11T20:30:47.841Z,22.40
2019-04-11T20:33:34.882Z,22.40
2019-04-11T20:36:32.854Z,22.40
2019-04-11T20:39:09.392Z,22.40
2019-04-11T20:41:55.781Z,22.40
2019-04-11T20:44:42.319Z,22.40
2019-04-11T20:47:29.539Z,22.40
2019-04-11T20:50:16.418Z,22.40
2019-04-11T20:53:12.528Z,22.40
2019-04-11T20:55:51.535Z,22.40
2019-04-11T20:58:39.781Z,22.40
2019-04-11T21:01:26.178Z,22.40
2019-04-11T21:04:14.714Z,22.40
2019-04-11T21:07:07.125Z,22.40
2019-04-11T21:09:53.963Z,22.40
2019-04-11T21:12:40.432Z,22.40
2019-04-11T21:15:27.027Z,22.40
2019-04-11T21:18:16.285Z,22.40
2019-04-11T21:21:02.633Z,22.50
2019-04-11T21:23:48.556Z,22.50
2019-04-11T21:26:34.957Z,22.50
2019-04-11T21:29:21.195Z,22.40
2019-04-11T21:32:07.178Z,22.40
2019-04-11T21:34:53.394Z,22.50
2019-04-11T21:37:39.817Z,22.50
2019-04-11T21:40:26.379Z,22.50
2019-04-11T21:43:12.783Z,22.50
2019-04-11T21:45:59.109Z,22.50
2019-04-11T21:48:45.726Z,22.40
2019-04-11T21:51:31.974Z,22.40
2019-04-11T21:54:18.414Z,22.40
2019-04-11T21:57:04.775Z,22.40
2019-04-11T21:59:51.650Z,22.40
2019-04-11T22:02:38.442Z,22.40
2019-04-11T22:05:29.025Z,22.40
2019-04-11T22:08:13.331Z,22.40
2019-04-11T22:10:59.684Z,22.40
2019-04-11T22:13:46.119Z,22.40
2019-04-11T22:16:32.389Z,22.40
2019-04-11T22:19:18.703Z,22.40
2019-04-11T22:22:05.223Z,22.40
2019-04-11T22:24:51.368Z,22.40
2019-04-11T22:27:37.419Z,22.40
2019-04-11T22:30:25.327Z,22.40
2019-04-11T22:33:27.737Z,22.40
2019-04-11T22:36:13.610Z,22.40
2019-04-11T22:39:01.643Z,22.40
2019-04-11T22:41:49.912Z,22.40
2019-04-11T22:44:38.090Z,22.40
2019-04-11T22:47:24.086Z,22.40
2019-04-11T22:50:10.676Z,22.40
2019-04-11T22:52:57.180Z,22.40
2019-04-11T22:55:43.143Z,22.30
2019-04-11T22:58:29.531Z,22.40
2019-04-11T23:01:16.526Z,22.40
2019-04-11T23:04:04.300Z,22.40
2019-04-11T23:06:50.621Z,22.30
2019-04-11T23:09:37.096Z,22.30
2019-04-11T23:12:23.443Z,22.30
2019-04-11T23:15:09.938Z,22.30
2019-04-11T23:17:57.262Z,22.30
2019-04-11T23:20:44.749Z,22.30
2019-04-11T23:23:31.636Z,22.30
2019-04-11T23:26:17.937Z,22.30
2019-04-11T23:29:04.392Z,22.30
2019-04-11T23:31:51.305Z,22.30
2019-04-11T23:34:38.205Z,22.30
2019-04-11T23:37:24.236Z,22.30
2019-04-11T23:40:10.699Z,22.30
2019-04-11T23:42:56.945Z,22.30
2019-04-11T23:45:43.400Z,22.20
2019-04-11T23:48:29.677Z,22.20
2019-04-11T23:51:16.076Z,22.20
2019-04-11T23:54:02.003Z,22.20
2019-04-11T23:56:48.853Z,22.20
2019-04-11T23:59:47.712Z,22.20
